Time;durP1;ratioP1;P1;durP2;ratioP2;P2;SDS_P1;SDS_P2;PMS_P1;PMS_P2;Temp;Humidity;BMP_temperature;BMP_pressure;BME280_temperature;BME280_humidity;BME280_pressure;Samples;Min_cycle;Max_cycle;Signal;HPM_P1;HPM_P2
2022/12/06 00:02:06;;;;;;;23.20;6.40;;;;;;;12.33;64.57;102126.47;5054062;28;20029;-75
2022/12/06 00:04:31;;;;;;;16.83;6.43;;;;;;;13.19;61.17;102125.44;5053969;28;20079;-73
2022/12/06 00:06:57;;;;;;;13.02;5.97;;;;;;;13.06;62.33;102129.00;5054307;28;20041;-75
2022/12/06 00:09:26;;;;;;;29.15;7.07;;;;;;;12.70;62.67;102127.75;5061641;28;20040;-74
2022/12/06 00:11:52;;;;;;;15.32;7.45;;;;;;;13.20;61.71;102130.66;5073995;28;20090;-73
2022/12/06 00:14:18;;;;;;;23.30;8.85;;;;;;;13.94;59.25;102117.47;5073379;28;20454;-74
2022/12/06 00:16:44;;;;;;;20.05;8.13;;;;;;;13.53;60.29;102124.31;5073899;28;20028;-74
2022/12/06 00:19:16;;;;;;;16.55;8.30;;;;;;;13.23;61.22;102130.22;5074284;28;20089;-73
2022/12/06 00:21:42;;;;;;;20.95;7.88;;;;;;;13.47;60.78;102136.81;5058080;28;20493;-74
2022/12/06 00:24:11;;;;;;;17.33;7.18;;;;;;;13.46;60.31;102135.16;5055128;28;20037;-73
2022/12/06 00:26:40;;;;;;;15.23;6.55;;;;;;;12.23;65.24;102148.44;5073514;28;20052;-74
2022/12/06 00:29:06;;;;;;;12.13;6.50;;;;;;;12.22;65.05;102143.28;5073277;28;20396;-73
2022/12/06 00:31:33;;;;;;;12.18;7.90;;;;;;;12.66;63.93;102140.00;5073803;28;20032;-73
2022/12/06 00:33:59;;;;;;;17.52;7.70;;;;;;;12.16;64.07;102141.38;5073889;28;20039;-74
2022/12/06 00:36:28;;;;;;;15.60;7.35;;;;;;;12.84;62.11;102143.72;5073433;28;20476;-74
2022/12/06 00:38:54;;;;;;;21.40;8.82;;;;;;;12.99;62.42;102146.22;5073404;28;20122;-74
2022/12/06 00:41:21;;;;;;;15.45;7.82;;;;;;;13.20;61.13;102140.63;5073287;28;20067;-74
2022/12/06 00:43:47;;;;;;;11.50;7.30;;;;;;;13.65;60.04;102136.13;5072788;28;20033;-74
2022/12/06 00:46:16;;;;;;;15.38;7.30;;;;;;;13.00;61.89;102137.91;5073642;28;20504;-73
2022/12/06 00:48:45;;;;;;;13.35;7.25;;;;;;;13.66;60.03;102130.50;5073398;28;20095;-74
2022/12/06 00:51:11;;;;;;;17.65;7.13;;;;;;;12.54;63.03;102136.28;5073090;28;20032;-75
2022/12/06 00:53:37;;;;;;;20.00;8.20;;;;;;;13.02;61.84;102127.75;5072989;28;20041;-74
2022/12/06 00:56:03;;;;;;;14.05;7.35;;;;;;;12.64;62.77;102139.38;5072980;28;20032;-74
2022/12/06 00:58:29;;;;;;;14.30;7.25;;;;;;;12.75;62.61;102136.91;5071243;28;20040;-74
2022/12/06 01:00:54;;;;;;;12.75;6.78;;;;;;;12.83;62.51;102131.28;5073416;28;20071;-74
2022/12/06 01:03:20;;;;;;;16.95;7.30;;;;;;;13.15;61.41;102135.00;5072896;28;20036;-73
2022/12/06 01:05:48;;;;;;;9.75;6.60;;;;;;;12.75;62.75;102125.28;5070688;28;20555;-75
2022/12/06 01:08:15;;;;;;;17.63;6.57;;;;;;;12.46;63.62;102131.88;5072589;28;20044;-75
2022/12/06 01:10:40;;;;;;;12.88;6.30;;;;;;;12.96;61.53;102131.28;5068877;28;20033;-74
2022/12/06 01:13:07;;;;;;;16.58;7.13;;;;;;;12.85;62.26;102136.47;5053361;28;20182;-74
2022/12/06 01:15:35;;;;;;;16.00;6.55;;;;;;;12.75;62.59;102136.06;5041463;28;20081;-75
2022/12/06 01:18:02;;;;;;;18.88;6.47;;;;;;;13.01;61.44;102133.34;5031686;28;20045;-74
2022/12/06 01:20:27;;;;;;;12.73;7.07;;;;;;;12.54;62.77;102133.56;5052588;28;20044;-73
2022/12/06 01:22:52;;;;;;;12.98;7.65;;;;;;;12.26;63.83;102133.75;5052528;28;20488;-74
2022/12/06 01:25:18;;;;;;;15.32;7.35;;;;;;;11.95;65.32;102125.38;5052405;28;20040;-73
2022/12/06 01:27:43;;;;;;;14.52;7.53;;;;;;;12.03;65.10;102125.16;5053039;28;20044;-75
2022/12/06 01:30:09;;;;;;;11.63;7.82;;;;;;;12.25;64.83;102130.22;5052101;28;20043;-73
2022/12/06 01:32:34;;;;;;;20.40;6.90;;;;;;;12.55;63.29;102124.44;5052442;28;20064;-73
2022/12/06 01:35:00;;;;;;;13.10;6.85;;;;;;;13.18;61.21;102124.63;5052520;28;20044;-73
2022/12/06 01:37:25;;;;;;;15.02;7.65;;;;;;;12.48;62.45;102127.13;5034100;28;20069;-73
2022/12/06 01:39:50;;;;;;;16.48;6.88;;;;;;;12.41;63.45;102137.06;5044689;28;20029;-74
2022/12/06 01:42:16;;;;;;;14.45;6.70;;;;;;;12.51;63.14;102129.41;5051802;28;20124;-74
2022/12/06 01:44:47;;;;;;;14.88;7.50;;;;;;;12.07;64.26;102123.72;5052082;28;20112;-73
2022/12/06 01:47:33;;;;;;;17.35;7.20;;;;;;;12.09;64.87;102124.34;5051930;28;20513;-73
2022/12/06 01:50:18;;;;;;;24.08;6.05;;;;;;;12.12;65.23;102126.66;5051414;28;20047;-74
2022/12/06 01:53:02;;;;;;;18.42;6.93;;;;;;;13.08;61.78;102128.78;5052177;28;20045;-73
2022/12/06 01:55:33;;;;;;;12.90;6.22;;;;;;;12.59;62.77;102123.81;5052115;28;20060;-74
2022/12/06 01:58:01;;;;;;;;;;;;;;;12.04;65.21;102118.75;5052935;28;20549;-74
2022/12/06 02:00:27;;;;;;;14.27;5.60;;;;;;;11.90;65.03;102119.75;5051871;28;19920;-73
2022/12/06 02:02:56;;;;;;;19.50;5.95;;;;;;;11.99;63.83;102118.56;5051714;28;20099;-76
2022/12/06 02:05:21;;;;;;;21.10;6.80;;;;;;;12.25;64.51;102122.13;5051689;28;20051;-73
2022/12/06 02:07:47;;;;;;;9.75;5.55;;;;;;;13.12;61.49;102119.25;5051561;28;20037;-75
2022/12/06 02:10:12;;;;;;;21.55;7.00;;;;;;;12.35;62.84;102116.31;5034075;28;20488;-74
2022/12/06 02:12:38;;;;;;;16.77;6.05;;;;;;;12.49;63.64;102118.00;5051352;28;20037;-74
2022/12/06 02:15:04;;;;;;;13.18;6.35;;;;;;;11.59;65.64;102111.31;5058137;28;20132;-73
2022/12/06 02:17:43;;;;;;;19.58;6.20;;;;;;;11.86;65.69;102116.63;5071249;28;20035;-73
2022/12/06 02:20:18;;;;;;;10.00;5.30;;;;;;;12.13;64.52;102118.38;5071366;28;20055;-73
2022/12/06 02:23:04;;;;;;;15.80;5.97;;;;;;;13.01;61.17;102112.56;5070626;28;20381;-74
2022/12/06 02:25:51;;;;;;;17.77;6.18;;;;;;;13.11;61.00;102118.41;5071122;28;20067;-73
2022/12/06 02:28:43;;;;;;;15.25;5.60;;;;;;;12.26;63.11;102107.59;5071101;28;20041;-74
2022/12/06 02:31:36;;;;;;;17.13;6.05;;;;;;;12.37;63.59;102106.16;5071958;28;20068;-74
2022/12/06 02:34:25;;;;;;;11.48;5.57;;;;;;;12.41;63.00;102112.81;4989312;28;20245;-73
2022/12/06 02:36:59;;;;;;;13.57;5.63;;;;;;;13.01;60.97;102107.19;4989462;28;20042;-74
2022/12/06 02:39:33;;;;;;;17.48;5.93;;;;;;;12.70;62.08;102104.31;4989051;28;20461;-74
2022/12/06 02:42:04;;;;;;;15.55;5.30;;;;;;;12.97;60.90;102110.53;4989209;28;20093;-74
2022/12/06 02:44:35;;;;;;;20.48;5.43;;;;;;;13.02;60.54;102100.75;4990835;28;20073;-75
2022/12/06 02:47:05;;;;;;;19.58;4.93;;;;;;;13.06;60.67;102096.63;5008499;28;20042;-72
2022/12/06 02:49:33;;;;;;;13.90;5.47;;;;;;;12.63;61.12;102098.09;5008630;28;20096;-73
2022/12/06 02:51:59;;;;;;;9.40;4.72;;;;;;;12.52;62.35;102097.91;5009056;28;20058;-73
2022/12/06 02:54:26;;;;;;;8.43;5.15;;;;;;;12.93;60.31;102090.41;5008454;28;20100;-73
2022/12/06 02:56:51;;;;;;;10.07;6.38;;;;;;;13.34;59.07;102090.94;5008448;28;20058;-73
2022/12/06 02:59:17;;;;;;;11.55;5.05;;;;;;;13.36;59.19;102094.28;5008281;28;20072;-74
2022/12/06 03:01:48;;;;;;;15.88;4.53;;;;;;;12.82;60.68;102089.16;5008211;28;20144;-74
2022/12/06 03:04:48;;;;;;;10.13;4.95;;;;;;;13.02;60.21;102086.44;5008946;28;20045;-74
2022/12/06 03:07:43;;;;;;;12.15;4.30;;;;;;;13.08;59.92;102097.25;5008014;28;20046;-73
2022/12/06 03:10:14;;;;;;;12.52;4.68;;;;;;;12.54;61.68;102095.81;5003533;28;20126;-74
2022/12/06 03:12:47;;;;;;;11.40;3.95;;;;;;;12.95;60.57;102101.81;5070562;28;20044;-73
2022/12/06 03:15:33;;;;;;;8.55;4.10;;;;;;;13.02;59.68;102098.06;5070110;28;20131;-72
2022/12/06 03:18:04;;;;;;;14.90;4.30;;;;;;;12.48;60.36;102093.94;5070680;28;20098;-75
2022/12/06 03:20:41;;;;;;;12.63;3.67;;;;;;;12.50;61.75;102099.97;5070257;28;20119;-75
2022/12/06 03:23:11;;;;;;;9.50;4.25;;;;;;;12.67;61.40;102103.91;5070647;28;20028;-72
2022/12/06 03:25:37;;;;;;;12.05;3.35;;;;;;;12.28;62.28;102104.72;5070424;28;20043;-74
2022/12/06 03:28:08;;;;;;;12.07;4.55;;;;;;;12.01;62.61;102103.81;5070692;28;20473;-74
2022/12/06 03:30:34;;;;;;;9.00;3.97;;;;;;;11.97;63.22;102107.97;5070022;28;20526;-75
2022/12/06 03:33:01;;;;;;;7.47;3.90;;;;;;;12.24;62.59;102100.78;5070149;28;20045;-74
2022/12/06 03:35:31;;;;;;;7.82;3.50;;;;;;;12.46;61.94;102096.84;5070243;28;20044;-74
2022/12/06 03:38:05;;;;;;;12.87;5.10;;;;;;;11.71;63.85;102093.59;5070290;28;20048;-74
2022/12/06 03:40:33;;;;;;;5.32;3.13;;;;;;;12.44;62.05;102085.47;5070400;28;20389;-73
2022/12/06 03:42:59;;;;;;;6.70;3.83;;;;;;;11.63;64.31;102088.34;5070661;28;20029;-73
2022/12/06 03:45:54;;;;;;;9.02;3.97;;;;;;;12.15;62.81;102086.66;5070348;28;20040;-74
2022/12/06 03:48:29;;;;;;;15.32;4.13;;;;;;;11.45;64.89;102083.50;5070183;28;20037;-73
2022/12/06 03:51:01;;;;;;;7.40;3.35;;;;;;;12.21;62.36;102082.31;5070147;28;20045;-73
2022/12/06 03:53:26;;;;;;;16.58;5.38;;;;;;;11.78;64.35;102080.97;5070064;28;20157;-72
2022/12/06 03:55:52;;;;;;;14.13;3.85;;;;;;;11.34;65.50;102070.66;5070298;28;20111;-73
2022/12/06 03:58:17;;;;;;;7.68;3.90;;;;;;;11.90;64.18;102082.03;5070034;28;20029;-74
2022/12/06 04:00:43;;;;;;;9.43;4.13;;;;;;;11.99;62.74;102087.03;5070220;28;20039;-75
2022/12/06 04:03:09;;;;;;;10.20;3.88;;;;;;;12.04;63.21;102075.66;5070248;28;20032;-73
2022/12/06 04:05:34;;;;;;;12.85;5.20;;;;;;;12.40;61.51;102075.28;5069788;28;20051;-75
2022/12/06 04:07:59;;;;;;;9.55;4.40;;;;;;;12.11;62.57;102088.09;5069667;28;20040;-74
2022/12/06 04:10:25;;;;;;;5.60;3.50;;;;;;;11.76;64.39;102080.34;5070100;28;20032;-73
2022/12/06 04:13:02;;;;;;;9.32;4.13;;;;;;;11.69;64.30;102090.28;5070835;28;20105;-73
2022/12/06 04:15:34;;;;;;;8.38;4.03;;;;;;;12.70;61.15;102088.13;5069574;28;20044;-74
2022/12/06 04:18:15;;;;;;;14.10;3.88;;;;;;;11.83;63.64;102084.72;5069926;28;20048;-73
2022/12/06 04:23:40;;;;;;;12.57;4.07;;;;;;;12.33;61.67;102083.34;5069637;28;20044;-73
2022/12/06 04:26:08;;;;;;;18.27;5.47;;;;;;;11.77;63.51;102082.00;5061411;28;20141;-74
2022/12/06 04:39:31;;;;;;;8.68;4.53;;;;;;;12.41;61.87;102077.75;5049650;28;20040;-72
2022/12/06 04:44:41;;;;;;;8.20;3.53;;;;;;;11.82;63.25;102080.38;5049558;28;20087;-74
2022/12/06 04:47:07;;;;;;;17.48;5.75;;;;;;;12.23;62.22;102074.84;5052837;28;20116;-73
2022/12/06 04:49:33;;;;;;;8.98;3.80;;;;;;;12.09;61.91;102075.84;5051342;28;20045;-74
2022/12/06 04:51:59;;;;;;;7.97;4.68;;;;;;;12.02;62.47;102072.34;5053753;28;20561;-73
2022/12/06 04:54:25;;;;;;;9.82;4.40;;;;;;;11.55;63.21;102070.53;5053372;28;20123;-72
2022/12/06 04:56:50;;;;;;;8.63;4.38;;;;;;;11.76;63.80;102066.88;5053212;28;20033;-74
2022/12/06 04:59:16;;;;;;;11.63;3.80;;;;;;;11.43;64.80;102072.97;5051646;28;20041;-74
2022/12/06 05:01:41;;;;;;;8.15;3.88;;;;;;;11.68;64.16;102070.59;5058244;28;20396;-74
2022/12/06 05:04:07;;;;;;;13.00;4.43;;;;;;;11.27;64.84;102070.59;5072900;28;20028;-74
2022/12/06 05:06:32;;;;;;;7.22;5.07;;;;;;;10.93;66.33;102078.66;5055916;28;20047;-74
2022/12/06 05:08:57;;;;;;;9.73;4.30;;;;;;;10.65;67.94;102079.72;5066034;28;20525;-74
2022/12/06 05:11:23;;;;;;;9.10;3.90;;;;;;;10.69;67.14;102068.41;5052335;28;20082;-73
2022/12/06 05:13:48;;;;;;;7.60;5.03;;;;;;;10.77;66.69;102065.53;5061700;28;20109;-74
2022/12/06 05:16:13;;;;;;;7.45;3.55;;;;;;;10.77;67.18;102068.22;5056822;28;20123;-74
2022/12/06 05:18:39;;;;;;;8.18;3.78;;;;;;;10.86;66.83;102069.75;5052733;28;20037;-74
2022/12/06 05:21:13;;;;;;;7.90;4.28;;;;;;;10.95;66.46;102065.03;5052459;28;20037;-73
2022/12/06 05:23:39;;;;;;;16.98;5.28;;;;;;;10.50;67.88;102056.44;5052541;28;20029;-75
2022/12/06 05:26:11;;;;;;;9.55;4.32;;;;;;;11.17;65.68;102069.28;5051022;28;20063;-74
2022/12/06 05:28:37;;;;;;;7.55;4.65;;;;;;;11.26;65.50;102060.03;5052228;28;20052;-73
2022/12/06 05:31:03;;;;;;;6.18;4.05;;;;;;;11.11;65.66;102064.72;5052603;28;20061;-74
2022/12/06 05:33:28;;;;;;;9.60;4.53;;;;;;;11.08;67.07;102062.44;5052480;28;20037;-73
2022/12/06 05:35:54;;;;;;;8.18;4.50;;;;;;;11.62;64.05;102057.06;5051691;28;20121;-74
2022/12/06 05:38:20;;;;;;;10.57;4.75;;;;;;;11.55;63.60;102064.28;5052285;28;20068;-73
2022/12/06 05:40:46;;;;;;;8.35;4.43;;;;;;;11.52;63.98;102065.53;5052367;28;20268;-74
2022/12/06 05:43:12;;;;;;;11.57;4.72;;;;;;;11.20;64.57;102075.09;5052543;28;20095;-73
2022/12/06 05:45:37;;;;;;;6.60;4.78;;;;;;;11.48;64.47;102064.25;5051854;28;20025;-73
2022/12/06 05:48:04;;;;;;;10.75;4.65;;;;;;;11.22;65.09;102067.66;5051863;28;20562;-74
2022/12/06 05:50:29;;;;;;;8.40;4.50;;;;;;;11.37;64.59;102071.06;5034009;28;20167;-74
2022/12/06 05:52:56;;;;;;;6.15;4.25;;;;;;;11.64;64.61;102074.69;5052136;28;20112;-73
2022/12/06 05:55:21;;;;;;;13.00;4.97;;;;;;;11.19;65.15;102075.31;5052190;28;20112;-73
2022/12/06 05:57:47;;;;;;;9.75;5.15;;;;;;;11.16;65.42;102071.16;5050860;28;20082;-74
2022/12/06 06:00:14;;;;;;;12.27;5.00;;;;;;;11.93;62.93;102068.19;5051581;28;20052;-74
2022/12/06 06:02:39;;;;;;;8.70;4.38;;;;;;;10.96;65.06;102069.38;5051965;28;20044;-74
2022/12/06 06:05:05;;;;;;;10.77;4.65;;;;;;;11.25;66.02;102071.81;5051853;28;20084;-74
2022/12/06 06:07:30;;;;;;;8.85;4.72;;;;;;;11.43;65.23;102075.66;5032850;28;20506;-74
2022/12/06 06:09:56;;;;;;;8.75;4.32;;;;;;;11.26;65.87;102079.69;5051971;28;20072;-77
2022/12/06 06:12:21;;;;;;;5.60;3.78;;;;;;;10.96;65.42;102072.06;5051913;28;20527;-77
2022/12/06 06:14:46;;;;;;;12.15;4.72;;;;;;;11.09;65.69;102072.16;5048841;28;20401;-78
2022/12/06 06:17:12;;;;;;;9.25;4.43;;;;;;;10.72;66.60;102075.22;5050107;28;20037;-77
2022/12/06 06:19:37;;;;;;;12.82;4.55;;;;;;;11.00;66.30;102074.19;5050964;28;20033;-76
2022/12/06 06:22:03;;;;;;;10.13;4.53;;;;;;;10.40;68.03;102084.69;5044885;28;20025;-77
2022/12/06 06:24:35;;;;;;;7.50;4.90;;;;;;;10.83;67.19;102080.06;5051591;28;20041;-77
2022/12/06 06:27:02;;;;;;;7.03;4.78;;;;;;;11.01;66.50;102075.81;5032158;28;20405;-77
2022/12/06 06:29:28;;;;;;;10.23;4.88;;;;;;;10.16;68.14;102074.34;5049963;28;20033;-76
2022/12/06 06:31:54;;;;;;;7.10;5.13;;;;;;;10.59;67.49;102075.97;5022678;28;20046;-77
2022/12/06 06:34:19;;;;;;;11.80;4.50;;;;;;;10.22;68.87;102081.63;5046034;28;20033;-76
2022/12/06 06:36:45;;;;;;;8.52;4.40;;;;;;;10.50;67.23;102071.75;5044177;28;20551;-77
2022/12/06 06:39:11;;;;;;;8.65;4.80;;;;;;;10.99;65.90;102077.88;5050360;28;20078;-76
2022/12/06 06:41:37;;;;;;;9.57;4.20;;;;;;;10.84;66.26;102076.34;5044261;28;20041;-76
2022/12/06 06:44:02;;;;;;;7.82;4.70;;;;;;;11.41;64.73;102083.09;5041642;28;20616;-77
2022/12/06 06:46:28;;;;;;;9.50;3.97;;;;;;;10.94;65.17;102084.88;5043915;28;20053;-78
2022/12/06 06:48:53;;;;;;;10.88;5.25;;;;;;;11.14;64.80;102081.31;5031090;28;20029;-78
2022/12/06 06:51:19;;;;;;;4.82;3.70;;;;;;;11.02;65.38;102073.97;5030990;28;20116;-78
2022/12/06 06:53:44;;;;;;;7.43;3.70;;;;;;;10.72;65.73;102072.53;5033135;28;20525;-80
2022/12/06 06:56:10;;;;;;;9.95;4.13;;;;;;;11.68;63.25;102069.75;5050764;28;20032;-80
2022/12/06 06:58:35;;;;;;;8.00;3.90;;;;;;;10.58;66.23;102076.97;5050720;28;20558;-77
2022/12/06 07:01:04;;;;;;;9.82;3.80;;;;;;;11.78;63.22;102079.13;5050806;28;20413;-77
2022/12/06 07:03:30;;;;;;;11.65;4.57;;;;;;;12.06;61.11;102074.41;5032360;28;20060;-77
2022/12/06 07:05:58;;;;;;;9.23;4.03;;;;;;;12.59;59.68;102085.22;5044383;28;20308;-77
2022/12/06 07:08:25;;;;;;;15.25;4.40;;;;;;;12.12;60.89;102076.31;5044098;28;20043;-79
2022/12/06 07:10:50;;;;;;;14.40;4.03;;;;;;;11.10;64.70;102081.88;5049561;28;20037;-77
2022/12/06 07:13:21;;;;;;;5.45;3.92;;;;;;;11.88;62.30;102079.56;5050041;28;20477;-78
2022/12/06 07:15:47;;;;;;;8.32;4.50;;;;;;;12.21;60.38;102076.91;5061117;28;20120;-77
2022/12/06 07:18:12;;;;;;;6.35;3.72;;;;;;;12.27;59.64;102068.00;5069092;28;20390;-77
2022/12/06 07:20:38;;;;;;;7.72;3.72;;;;;;;12.16;60.26;102072.16;5070404;28;20151;-78
2022/12/06 07:23:04;;;;;;;8.45;3.30;;;;;;;11.83;60.54;102065.06;5070310;28;20101;-78
2022/12/06 07:25:30;;;;;;;10.10;3.78;;;;;;;11.93;60.96;102070.88;5069588;28;20116;-77
2022/12/06 07:27:56;;;;;;;8.02;4.05;;;;;;;12.05;59.97;102063.81;5068870;28;20086;-78
2022/12/06 07:30:21;;;;;;;7.35;3.92;;;;;;;12.44;58.91;102058.50;5059875;28;20077;-77
2022/12/06 07:32:46;;;;;;;7.50;4.88;;;;;;;12.22;59.21;102062.41;5068510;28;20159;-77
2022/12/06 07:35:12;;;;;;;8.27;4.13;;;;;;;12.14;59.73;102065.31;5069969;28;20438;-79
2022/12/06 07:37:41;;;;;;;7.22;3.65;;;;;;;11.72;60.49;102062.94;5060009;28;20128;-79
2022/12/06 07:40:07;;;;;;;8.75;4.18;;;;;;;11.65;60.99;102062.06;5050922;28;20040;-78
2022/12/06 07:45:16;;;;;;;8.98;4.00;;;;;;;12.46;57.21;102053.69;5070196;28;20121;-78
2022/12/06 07:47:43;;;;;;;7.97;3.72;;;;;;;12.50;57.05;102068.41;5069776;28;20441;-77
2022/12/06 07:50:12;;;;;;;6.47;4.07;;;;;;;12.45;56.62;102068.22;5066968;28;20032;-78
2022/12/06 07:52:38;;;;;;;6.50;3.40;;;;;;;12.47;56.59;102059.94;5050131;28;20369;-77
2022/12/06 07:55:05;;;;;;;5.63;2.83;;;;;;;12.31;56.45;102062.00;5064193;28;20039;-77
2022/12/06 07:57:31;;;;;;;8.52;3.65;;;;;;;12.25;56.54;102064.69;5068864;28;20056;-77
2022/12/06 07:59:56;;;;;;;8.45;3.25;;;;;;;12.02;56.93;102061.56;5070011;28;20039;-78
2022/12/06 08:02:27;;;;;;;11.57;3.88;;;;;;;12.11;56.54;102060.31;5069866;28;20111;-78
2022/12/06 08:04:53;;;;;;;8.68;3.25;;;;;;;12.02;56.30;102066.94;5070031;28;20056;-78
2022/12/06 08:07:20;;;;;;;8.48;3.15;;;;;;;11.85;56.75;102065.69;5068894;28;20538;-79
2022/12/06 08:09:45;;;;;;;5.75;3.72;;;;;;;11.73;57.71;102067.28;5070550;28;20379;-78
2022/12/06 08:12:11;;;;;;;4.60;3.42;;;;;;;11.77;57.24;102065.84;5070036;28;20037;-77
2022/12/06 08:14:36;;;;;;;6.88;3.75;;;;;;;11.70;57.46;102059.59;5069853;28;20534;-79
2022/12/06 08:17:04;;;;;;;7.55;3.45;;;;;;;11.69;56.73;102061.50;5069647;28;20028;-77
2022/12/06 08:19:30;;;;;;;8.32;3.35;;;;;;;11.52;58.03;102063.66;5069939;28;20025;-78
2022/12/06 08:21:55;;;;;;;6.72;4.00;;;;;;;11.54;57.72;102063.47;5073570;28;20047;-78
2022/12/06 08:24:21;;;;;;;6.65;3.53;;;;;;;11.62;58.09;102065.13;5073733;28;20526;-76
2022/12/06 08:26:47;;;;;;;8.07;4.22;;;;;;;11.49;58.12;102057.84;5073538;28;20463;-79
2022/12/06 08:29:12;;;;;;;4.75;3.63;;;;;;;11.50;58.09;102059.50;5073469;28;20028;-76
2022/12/06 08:31:38;;;;;;;6.65;4.00;;;;;;;11.28;58.95;102071.44;5073280;28;20565;-78
2022/12/06 08:34:03;;;;;;;5.22;3.22;;;;;;;11.35;58.33;102067.75;5073830;28;20438;-78
2022/12/06 08:36:29;;;;;;;10.27;4.28;;;;;;;11.40;58.98;102073.34;5073496;28;20029;-78
2022/12/06 08:38:55;;;;;;;9.77;4.78;;;;;;;11.19;60.11;102078.84;5073134;28;20043;-77
2022/12/06 08:44:06;;;;;;;14.35;4.47;;;;;;;11.71;58.73;102069.34;5073462;28;20056;-77
2022/12/06 08:46:33;;;;;;;9.75;4.13;;;;;;;11.50;59.73;102073.81;5072810;28;20024;-77
2022/12/06 08:48:59;;;;;;;10.15;3.97;;;;;;;10.98;60.89;102078.09;5073972;28;20055;-78
2022/12/06 08:51:24;;;;;;;6.97;4.28;;;;;;;11.36;60.25;102076.66;5073191;28;20503;-77
2022/12/06 08:53:52;;;;;;;12.98;4.20;;;;;;;11.14;60.70;102069.72;5073221;28;20040;-77
2022/12/06 08:56:17;;;;;;;14.13;5.03;;;;;;;10.88;61.16;102078.44;5073060;28;20035;-77
2022/12/06 08:58:43;;;;;;;6.10;3.22;;;;;;;11.08;60.85;102081.25;5071802;28;20036;-78
2022/12/06 09:01:23;;;;;;;11.65;4.82;;;;;;;11.73;59.10;102081.59;5073421;28;20455;-79
2022/12/06 09:03:49;;;;;;;8.23;4.13;;;;;;;11.72;58.83;102076.38;5088727;28;20123;-78
2022/12/06 09:06:15;;;;;;;11.40;4.60;;;;;;;11.83;58.33;102073.94;5072879;28;20124;-80
2022/12/06 09:08:41;;;;;;;11.60;4.30;;;;;;;11.52;59.59;102076.28;5072801;28;20097;-78
2022/12/06 09:11:08;;;;;;;6.32;3.90;;;;;;;11.74;58.87;102075.16;5071493;28;20454;-76
2022/12/06 09:13:36;;;;;;;8.93;4.45;;;;;;;11.48;59.89;102075.03;5072638;28;20535;-77
2022/12/06 09:16:19;;;;;;;8.23;4.18;;;;;;;11.72;59.18;102077.22;5063684;28;20500;-79
2022/12/06 09:18:46;;;;;;;10.32;4.50;;;;;;;11.80;58.90;102082.44;5052790;28;20118;-76
2022/12/06 09:21:16;;;;;;;7.28;4.63;;;;;;;12.00;58.13;102082.47;5034784;28;20378;-76
2022/12/06 09:23:42;;;;;;;7.70;4.97;;;;;;;12.25;57.89;102092.47;5052721;28;20055;-78
2022/12/06 09:26:07;;;;;;;9.73;4.30;;;;;;;11.99;57.96;102088.91;5061008;28;20025;-77
2022/12/06 09:28:35;;;;;;;8.77;3.95;;;;;;;12.70;57.12;102077.34;5072483;28;20036;-77
2022/12/06 09:31:05;;;;;;;6.93;4.65;;;;;;;12.54;56.92;102083.16;5072589;28;20402;-77
2022/12/06 09:33:31;;;;;;;9.68;4.15;;;;;;;11.86;59.29;102075.41;5072290;28;20033;-75
2022/12/06 09:36:00;;;;;;;9.32;4.05;;;;;;;11.75;60.72;102076.00;5072316;28;20052;-77
2022/12/06 09:38:28;;;;;;;16.17;4.18;;;;;;;11.68;60.03;102081.34;5072572;28;20128;-77
2022/12/06 09:40:59;;;;;;;8.93;3.90;;;;;;;11.61;61.30;102080.47;5072165;28;20041;-78
2022/12/06 09:43:43;;;;;;;8.10;4.45;;;;;;;12.34;59.63;102074.25;5071734;28;20032;-77
2022/12/06 09:46:26;;;;;;;6.97;3.78;;;;;;;12.65;58.50;102077.16;5072841;28;20040;-76
2022/12/06 09:49:06;;;;;;;8.25;3.63;;;;;;;12.66;58.39;102075.28;5072460;28;20256;-78
2022/12/06 09:51:58;;;;;;;4.65;3.15;;;;;;;12.27;59.55;102065.31;5072050;28;20048;-76
2022/12/06 09:54:51;;;;;;;6.38;3.58;;;;;;;13.08;57.18;102080.22;5072007;28;20033;-78
2022/12/06 09:57:25;;;;;;;6.72;3.75;;;;;;;12.73;57.29;102074.25;5071884;28;20037;-78
2022/12/06 10:00:04;;;;;;;10.43;3.65;;;;;;;12.84;57.70;102078.97;5056434;28;20041;-77
2022/12/06 10:02:49;;;;;;;9.50;3.63;;;;;;;12.98;58.25;102075.22;5051850;28;20044;-77
2022/12/06 10:05:50;;;;;;;9.80;3.50;;;;;;;13.00;56.79;102066.91;5051879;28;20045;-77
2022/12/06 10:08:34;;;;;;;;;;;;;;;12.68;58.56;102063.22;5052456;28;20555;-76
2022/12/06 10:11:23;;;;;;;9.10;3.15;;;;;;;12.80;58.51;102077.75;5050380;28;19924;-75
2022/12/06 10:14:10;;;;;;;9.32;3.58;;;;;;;12.60;59.02;102076.94;5051645;28;20043;-79
2022/12/06 10:17:10;;;;;;;6.47;2.92;;;;;;;13.32;57.60;102070.59;5063405;28;20058;-76
2022/12/06 10:19:48;;;;;;;5.65;2.90;;;;;;;12.92;57.38;102069.84;5071484;28;20041;-76
2022/12/06 10:22:37;;;;;;;8.68;3.85;;;;;;;13.34;56.60;102074.75;5071694;28;20044;-76
2022/12/06 10:25:18;;;;;;;6.07;2.97;;;;;;;12.73;58.14;102076.09;5071810;28;20620;-77
2022/12/06 10:27:49;;;;;;;8.43;3.42;;;;;;;12.74;57.95;102067.78;5069534;28;20048;-76
2022/12/06 10:30:15;;;;;;;6.80;2.53;;;;;;;12.52;59.53;102066.34;5071352;28;20488;-77
2022/12/06 10:32:50;;;;;;;4.07;2.60;;;;;;;11.74;60.50;102061.69;5070033;28;20036;-77
2022/12/06 10:35:23;;;;;;;8.27;2.90;;;;;;;12.72;58.76;102064.47;5071419;28;20131;-77
2022/12/06 10:38:04;;;;;;;5.10;2.72;;;;;;;13.41;56.88;102055.81;5071178;28;20032;-78
2022/12/06 10:41:04;;;;;;;7.07;3.05;;;;;;;12.12;60.24;102054.75;5055057;28;20047;-76
2022/12/06 10:43:50;;;;;;;7.80;2.80;;;;;;;12.74;59.53;102059.69;5061681;28;20107;-76
2022/12/06 10:49:20;;;;;;;11.13;3.10;;;;;;;13.08;57.33;102051.38;5071006;28;20145;-76
2022/12/06 10:52:02;;;;;;;7.07;2.80;;;;;;;12.63;58.99;102052.25;5071234;28;20055;-77
2022/12/06 10:54:33;;;;;;;14.23;3.05;;;;;;;13.21;57.18;102048.63;5070703;28;20066;-75
2022/12/06 10:57:01;;;;;;;;;;;;;;;13.52;56.31;102041.66;5071510;28;20041;-77
2022/12/06 10:59:35;;;;;;;9.82;3.33;;;;;;;13.50;56.48;102028.38;5070790;28;20100;-76
2022/12/06 11:02:16;;;;;;;7.07;2.78;;;;;;;13.47;56.42;102020.69;5070418;28;20377;-77
2022/12/06 11:04:45;;;;;;;7.30;2.92;;;;;;;12.97;57.76;102022.28;5069321;28;20041;-77
2022/12/06 11:07:22;;;;;;;4.40;2.75;;;;;;;13.69;55.65;102024.72;5070955;28;20116;-75
2022/12/06 11:09:53;;;;;;;7.85;2.42;;;;;;;12.78;57.61;102022.34;5070929;28;20060;-75
2022/12/06 11:12:24;;;;;;;10.85;2.95;;;;;;;12.22;58.92;102020.13;5070658;28;20036;-76
2022/12/06 11:15:01;;;;;;;;;;;;;;;13.23;56.22;102014.16;5071001;28;20135;-75
2022/12/06 11:17:30;;;;;;;4.35;3.28;;;;;;;12.84;57.28;102010.72;5050352;28;20003;-75
2022/12/06 11:20:05;;;;;;;4.57;3.08;;;;;;;12.31;59.39;102018.88;5069529;28;20492;-77
2022/12/06 11:22:39;;;;;;;5.57;2.75;;;;;;;13.44;57.09;102012.19;5070312;28;20033;-76
2022/12/06 11:25:13;;;;;;;5.45;2.85;;;;;;;12.95;57.60;102012.78;5071620;28;20016;-79
2022/12/06 11:27:48;;;;;;;10.50;2.83;;;;;;;12.85;58.27;102015.91;5069056;28;20040;-76
2022/12/06 11:30:17;;;;;;;14.13;3.58;;;;;;;13.27;56.07;102011.84;5069153;28;20393;-78
2022/12/06 11:32:44;;;;;;;15.65;3.88;;;;;;;13.43;54.88;102015.91;5070651;28;20036;-73
2022/12/06 11:35:24;;;;;;;7.43;3.10;;;;;;;13.76;54.83;102003.88;5069194;28;20036;-76
2022/12/06 11:38:02;;;;;;;9.05;3.30;;;;;;;14.51;52.79;101991.25;5070607;28;20493;-76
2022/12/06 11:40:50;;;;;;;5.35;2.63;;;;;;;14.19;52.94;101997.78;5070663;28;20133;-74
2022/12/06 11:43:20;;;;;;;13.45;4.35;;;;;;;12.88;56.51;101996.59;5069635;28;20024;-75
2022/12/06 11:45:47;;;;;;;10.50;4.03;;;;;;;13.09;56.58;101995.50;5069799;28;20503;-75
2022/12/06 11:48:16;;;;;;;7.47;3.42;;;;;;;12.54;58.24;101993.38;5069994;28;20045;-75
2022/12/06 11:50:44;;;;;;;10.68;3.25;;;;;;;13.06;56.91;101983.28;5068519;28;20040;-75
2022/12/06 11:53:29;;;;;;;6.43;3.90;;;;;;;13.53;54.21;101983.88;5067705;28;20020;-73
2022/12/06 11:56:01;;;;;;;13.63;3.17;;;;;;;13.54;54.22;101988.25;5071206;28;20033;-73
2022/12/06 11:58:31;;;;;;;11.20;3.80;;;;;;;13.69;54.39;101984.22;5068069;28;20056;-73
2022/12/06 12:01:01;;;;;;;6.70;2.80;;;;;;;13.09;56.05;101988.25;5072319;28;20139;-75